createdAt,value
2019-01-24T00:00:25.594Z,29.20
2019-01-24T00:02:54.044Z,29.73
2019-01-24T00:05:22.427Z,27.47
2019-01-24T00:07:50.841Z,30.80
2019-01-24T00:10:19.297Z,29.60
2019-01-24T00:12:47.714Z,27.83
2019-01-24T00:15:16.111Z,32.60
2019-01-24T00:17:44.513Z,30.13
2019-01-24T00:20:14.950Z,29.27
2019-01-24T00:22:43.373Z,30.03
2019-01-24T00:25:11.757Z,30.97
2019-01-24T00:27:40.137Z,28.93
2019-01-24T00:30:13.808Z,30.60
2019-01-24T00:32:42.204Z,30.40
2019-01-24T00:35:10.625Z,30.20
2019-01-24T00:37:39.004Z,30.43
2019-01-24T00:40:10.686Z,26.10
2019-01-24T00:42:39.074Z,31.50
2019-01-24T00:45:08.497Z,30.73
2019-01-24T00:47:36.915Z,32.23
2019-01-24T00:50:08.410Z,30.00
2019-01-24T00:52:36.817Z,30.63
2019-01-24T00:55:08.203Z,31.17
2019-01-24T00:57:36.621Z,30.83
2019-01-24T01:00:10.958Z,31.10
2019-01-24T01:02:39.341Z,31.30
2019-01-24T01:05:09.695Z,29.67
2019-01-24T01:07:38.145Z,29.40
2019-01-24T01:10:08.608Z,30.37
2019-01-24T01:12:36.985Z,31.33
2019-01-24T01:15:13.722Z,31.70
2019-01-24T01:17:42.103Z,31.73
2019-01-24T01:20:13.520Z,31.23
2019-01-24T01:22:41.904Z,31.27
2019-01-24T01:25:11.829Z,28.67
2019-01-24T01:27:40.241Z,29.80
2019-01-24T01:30:11.927Z,31.33
2019-01-24T01:32:40.413Z,30.10
2019-01-24T01:35:08.797Z,31.00
2019-01-24T01:37:37.209Z,29.30
2019-01-24T01:40:08.791Z,30.20
2019-01-24T01:42:37.202Z,30.40
2019-01-24T01:45:08.678Z,29.13
2019-01-24T01:47:37.057Z,30.47
2019-01-24T01:50:08.730Z,30.43
2019-01-24T01:52:37.122Z,29.93
2019-01-24T01:55:06.202Z,30.00
2019-01-24T01:57:34.597Z,31.87
2019-01-24T02:00:03.009Z,31.33
2019-01-24T02:02:31.390Z,29.63
2019-01-24T02:04:59.811Z,28.07
2019-01-24T02:07:28.195Z,31.30
2019-01-24T02:09:56.579Z,28.57
2019-01-24T02:12:24.993Z,29.63
2019-01-24T02:14:53.372Z,28.70
2019-01-24T02:17:31.551Z,30.03
2019-01-24T02:19:58.601Z,29.63
2019-01-24T02:22:27.103Z,31.23
2019-01-24T02:24:55.482Z,30.70
2019-01-24T02:27:23.892Z,30.03
2019-01-24T02:29:52.337Z,30.47
2019-01-24T02:32:20.723Z,30.60
2019-01-24T02:34:49.811Z,30.93
2019-01-24T02:37:18.631Z,30.13
2019-01-24T02:39:47.042Z,31.73
2019-01-24T02:42:15.416Z,29.60
2019-01-24T02:44:43.797Z,29.37
2019-01-24T02:47:12.218Z,31.20
2019-01-24T02:49:40.729Z,32.30
2019-01-24T02:52:09.149Z,29.87
2019-01-24T02:54:37.537Z,31.27
2019-01-24T02:57:05.962Z,32.10
2019-01-24T02:59:34.332Z,31.50
2019-01-24T03:02:02.716Z,30.67
2019-01-24T03:04:31.136Z,31.13
2019-01-24T03:06:59.525Z,31.10
2019-01-24T03:09:27.933Z,31.33
2019-01-24T03:11:56.315Z,31.80
2019-01-24T03:14:24.728Z,31.57
2019-01-24T03:16:53.109Z,30.43
2019-01-24T03:19:21.529Z,33.13
2019-01-24T03:21:49.917Z,31.97
2019-01-24T03:24:18.330Z,31.80
2019-01-24T03:26:46.704Z,30.23
2019-01-24T03:29:15.081Z,31.93
2019-01-24T03:31:43.494Z,31.10
2019-01-24T03:34:11.873Z,31.97
2019-01-24T03:36:40.281Z,30.63
2019-01-24T03:39:08.657Z,33.70
2019-01-24T03:41:37.076Z,31.33
2019-01-24T03:44:05.457Z,31.10
2019-01-24T03:46:33.842Z,30.93
2019-01-24T03:49:02.248Z,30.73
2019-01-24T03:51:30.624Z,31.80
2019-01-24T03:53:59.035Z,30.53
2019-01-24T03:56:27.418Z,32.43
2019-01-24T03:58:55.835Z,32.90
2019-01-24T04:01:24.205Z,31.17
2019-01-24T04:03:56.228Z,31.17
2019-01-24T04:06:24.619Z,30.37
2019-01-24T04:08:53.005Z,33.53
2019-01-24T04:11:21.413Z,32.17
2019-01-24T04:13:49.793Z,32.93
2019-01-24T04:16:18.172Z,31.33
2019-01-24T04:18:46.592Z,31.57
2019-01-24T04:21:14.966Z,32.97
2019-01-24T04:23:43.379Z,32.73
2019-01-24T04:26:11.761Z,32.13
2019-01-24T04:28:40.170Z,31.93
2019-01-24T04:31:08.549Z,32.27
2019-01-24T04:33:36.960Z,33.17
2019-01-24T04:36:05.344Z,32.70
2019-01-24T04:38:33.718Z,34.03
2019-01-24T04:41:02.133Z,32.90
2019-01-24T04:43:30.504Z,33.47
2019-01-24T04:45:58.917Z,33.23
2019-01-24T04:48:27.303Z,33.60
2019-01-24T04:50:55.700Z,33.73
2019-01-24T04:53:24.076Z,33.43
2019-01-24T04:55:52.458Z,34.03
2019-01-24T04:58:20.872Z,33.23
2019-01-24T05:00:49.267Z,33.90
2019-01-24T05:03:17.695Z,35.70
2019-01-24T05:05:46.065Z,34.63
2019-01-24T05:08:14.475Z,34.67
2019-01-24T05:10:42.860Z,34.80
2019-01-24T05:13:11.270Z,34.87
2019-01-24T05:15:39.647Z,35.17
2019-01-24T05:18:08.033Z,34.50
2019-01-24T05:20:36.443Z,33.80
2019-01-24T05:23:04.846Z,34.67
2019-01-24T05:25:33.254Z,33.37
2019-01-24T05:28:01.634Z,35.87
2019-01-24T05:30:30.046Z,35.90
2019-01-24T05:32:58.431Z,37.50
2019-01-24T05:35:26.912Z,35.67
2019-01-24T05:37:55.283Z,39.73
2019-01-24T05:40:23.706Z,35.97
2019-01-24T05:42:52.102Z,35.50
2019-01-24T05:45:20.470Z,34.87
2019-01-24T05:47:48.906Z,35.93
2019-01-24T05:50:17.357Z,34.87
2019-01-24T05:52:45.795Z,37.40
2019-01-24T05:55:14.948Z,37.17
2019-01-24T05:57:43.542Z,37.37
2019-01-24T06:00:37.574Z,32.90
2019-01-24T06:03:06.010Z,36.33
2019-01-24T06:05:34.390Z,37.70
2019-01-24T06:08:02.820Z,37.60
2019-01-24T06:10:31.282Z,38.57
2019-01-24T06:12:59.698Z,37.67
2019-01-24T06:15:28.126Z,39.27
2019-01-24T06:17:56.552Z,38.20
2019-01-24T06:20:24.972Z,38.07
2019-01-24T06:22:53.349Z,38.90
2019-01-24T06:25:21.766Z,37.17
2019-01-24T06:27:50.160Z,38.67
2019-01-24T06:30:20.721Z,37.97
2019-01-24T06:32:49.171Z,37.67
2019-01-24T06:35:17.814Z,38.63
2019-01-24T06:37:46.365Z,39.10
2019-01-24T06:40:16.984Z,37.20
2019-01-24T06:42:46.470Z,39.93
2019-01-24T06:45:21.493Z,38.67
2019-01-24T06:47:49.918Z,37.57
2019-01-24T06:50:20.057Z,41.07
2019-01-24T06:52:48.580Z,40.20
2019-01-24T06:55:22.948Z,37.93
2019-01-24T06:57:53.756Z,38.13
2019-01-24T07:00:22.488Z,36.90
2019-01-24T07:02:53.364Z,40.47
2019-01-24T07:05:21.907Z,39.20
2019-01-24T07:07:50.407Z,39.10
2019-01-24T07:10:21.307Z,38.43
2019-01-24T07:12:49.910Z,38.97
2019-01-24T07:15:20.358Z,40.27
2019-01-24T07:17:48.991Z,39.50
2019-01-24T07:20:19.553Z,39.77
2019-01-24T07:22:48.096Z,40.60
2019-01-24T07:25:22.555Z,40.30
2019-01-24T07:27:51.438Z,41.27
2019-01-24T07:30:20.737Z,41.93
2019-01-24T07:32:49.333Z,40.00
2019-01-24T07:35:18.994Z,43.03
2019-01-24T07:37:47.402Z,43.10
2019-01-24T07:40:20.231Z,43.23
2019-01-24T07:42:49.017Z,38.93
2019-01-24T07:45:23.185Z,41.60
2019-01-24T07:47:51.707Z,43.47
2019-01-24T07:50:20.326Z,44.13
2019-01-24T07:52:48.762Z,42.67
2019-01-24T07:55:17.267Z,44.00
2019-01-24T07:57:45.710Z,43.27
2019-01-24T08:00:20.404Z,43.37
2019-01-24T08:02:48.851Z,43.77
2019-01-24T08:05:17.384Z,43.57
2019-01-24T08:07:45.835Z,43.40
2019-01-24T08:10:19.465Z,45.57
2019-01-24T08:12:47.902Z,45.93
2019-01-24T08:15:18.841Z,44.50
2019-01-24T08:17:47.341Z,44.00
2019-01-24T08:20:18.194Z,43.07
2019-01-24T08:22:46.720Z,43.63
2019-01-24T08:25:15.194Z,45.90
2019-01-24T08:27:43.613Z,45.07
2019-01-24T08:30:20.743Z,45.10
2019-01-24T08:32:49.195Z,46.53
2019-01-24T08:35:17.651Z,44.73
2019-01-24T08:37:46.716Z,44.47
2019-01-24T08:40:19.823Z,43.90
2019-01-24T08:42:48.300Z,43.57
2019-01-24T08:45:17.389Z,46.07
2019-01-24T08:47:45.853Z,44.57
2019-01-24T08:50:19.825Z,49.17
2019-01-24T08:52:48.347Z,44.13
2019-01-24T08:55:31.755Z,43.90
2019-01-24T08:58:00.177Z,42.67
2019-01-24T09:00:28.648Z,46.53
2019-01-24T09:02:57.175Z,47.53
2019-01-24T09:05:25.752Z,45.50
2019-01-24T09:07:54.238Z,42.53
2019-01-24T09:10:30.492Z,46.37
2019-01-24T09:12:59.004Z,46.47
2019-01-24T09:15:27.482Z,46.77
2019-01-24T09:17:55.883Z,45.77
2019-01-24T09:20:24.321Z,46.47
2019-01-24T09:22:55.342Z,42.07
2019-01-24T09:25:22.786Z,45.77
2019-01-24T09:27:51.195Z,46.87
2019-01-24T09:30:22.425Z,46.77
2019-01-24T09:32:50.845Z,46.83
2019-01-24T09:35:19.249Z,48.60
2019-01-24T09:37:47.711Z,47.37
2019-01-24T09:40:18.922Z,49.17
2019-01-24T09:42:47.543Z,48.13
2019-01-24T09:45:27.018Z,45.80
2019-01-24T09:47:56.893Z,48.17
2019-01-24T09:50:26.843Z,48.63
2019-01-24T09:52:55.362Z,46.77
2019-01-24T09:55:23.779Z,48.00
2019-01-24T09:57:52.243Z,45.33
2019-01-24T10:00:26.307Z,47.20
2019-01-24T10:02:54.731Z,47.40
2019-01-24T10:05:25.367Z,44.90
2019-01-24T10:07:53.969Z,46.20
2019-01-24T10:10:24.295Z,45.83
2019-01-24T10:12:53.246Z,46.00
2019-01-24T10:15:22.279Z,45.30
2019-01-24T10:17:50.757Z,45.93
2019-01-24T10:20:21.486Z,45.43
2019-01-24T10:22:49.903Z,46.87
2019-01-24T10:25:26.877Z,48.23
2019-01-24T10:27:55.327Z,47.03
2019-01-24T10:30:26.139Z,45.93
2019-01-24T10:32:54.620Z,46.43
2019-01-24T10:35:23.147Z,46.03
2019-01-24T10:37:51.574Z,47.30
2019-01-24T10:40:28.209Z,46.07
2019-01-24T10:42:56.753Z,47.10
2019-01-24T10:45:25.231Z,48.57
2019-01-24T10:47:53.756Z,47.53
2019-01-24T10:50:24.515Z,46.10
2019-01-24T10:52:52.901Z,46.03
2019-01-24T10:55:23.369Z,48.03
2019-01-24T10:57:52.982Z,47.97
2019-01-24T11:00:24.100Z,46.20
2019-01-24T11:02:52.519Z,47.13
2019-01-24T11:05:20.968Z,46.70
2019-01-24T11:07:49.416Z,46.40
2019-01-24T11:10:20.123Z,48.63
2019-01-24T11:12:49.068Z,47.37
2019-01-24T11:15:25.110Z,46.87
2019-01-24T11:17:53.518Z,48.20
2019-01-24T11:20:21.867Z,50.17
2019-01-24T11:22:50.623Z,46.47
2019-01-24T11:25:26.348Z,47.90
2019-01-24T11:27:54.754Z,46.53
2019-01-24T11:30:28.045Z,47.33
2019-01-24T11:32:56.524Z,47.43
2019-01-24T11:35:27.569Z,47.97
2019-01-24T11:37:56.054Z,48.50
2019-01-24T11:40:24.432Z,46.90
2019-01-24T11:42:52.884Z,48.60
2019-01-24T11:45:27.268Z,48.33
2019-01-24T11:47:55.645Z,48.57
2019-01-24T11:50:24.053Z,46.00
2019-01-24T11:52:52.534Z,49.73
2019-01-24T11:55:21.682Z,48.40
2019-01-24T11:57:50.144Z,46.90
2019-01-24T12:00:32.025Z,45.40
2019-01-24T12:03:00.474Z,47.93
2019-01-24T12:05:28.947Z,45.67
2019-01-24T12:07:57.464Z,47.80
2019-01-24T12:10:27.938Z,47.40
2019-01-24T12:12:56.355Z,46.33
2019-01-24T12:15:30.099Z,47.07
2019-01-24T12:17:58.549Z,47.63
2019-01-24T12:20:27.025Z,48.37
2019-01-24T12:22:55.418Z,47.07
2019-01-24T12:25:23.843Z,46.47
2019-01-24T12:27:52.306Z,46.67
2019-01-24T12:30:36.926Z,45.03
2019-01-24T12:33:05.766Z,44.83
2019-01-24T12:35:34.169Z,47.30
2019-01-24T12:38:02.626Z,45.33
2019-01-24T12:40:31.050Z,46.87
2019-01-24T12:42:59.454Z,46.17
2019-01-24T12:45:35.653Z,48.27
2019-01-24T12:48:04.314Z,46.93
2019-01-24T12:50:32.702Z,48.00
2019-01-24T12:53:01.131Z,45.13
2019-01-24T12:55:29.527Z,47.03
2019-01-24T12:57:58.013Z,44.97
2019-01-24T13:00:29.181Z,45.23
2019-01-24T13:02:57.598Z,44.47
2019-01-24T13:05:25.990Z,45.00
2019-01-24T13:07:54.410Z,44.53
2019-01-24T13:10:27.308Z,45.07
2019-01-24T13:12:55.706Z,47.23
2019-01-24T13:15:26.564Z,45.80
2019-01-24T13:17:54.944Z,46.27
2019-01-24T13:20:23.361Z,44.47
2019-01-24T13:22:51.760Z,45.13
2019-01-24T13:25:23.277Z,45.77
2019-01-24T13:27:51.725Z,45.03
2019-01-24T13:30:28.530Z,43.53
2019-01-24T13:32:56.920Z,44.63
2019-01-24T13:35:25.333Z,43.20
2019-01-24T13:37:53.719Z,46.13
2019-01-24T13:40:24.438Z,45.17
2019-01-24T13:42:52.858Z,46.10
2019-01-24T13:45:26.319Z,45.97
2019-01-24T13:47:54.725Z,44.50
2019-01-24T13:50:23.391Z,47.47
2019-01-24T13:52:51.792Z,46.30
2019-01-24T13:55:20.593Z,45.50
2019-01-24T13:57:48.980Z,44.03
2019-01-24T14:00:26.011Z,43.47
2019-01-24T14:03:15.887Z,44.53
2019-01-24T14:05:44.313Z,43.77
2019-01-24T14:08:12.708Z,43.87
2019-01-24T14:10:41.134Z,44.77
2019-01-24T14:13:09.515Z,43.33
2019-01-24T14:15:37.934Z,44.00
2019-01-24T14:18:06.330Z,46.80
2019-01-24T14:20:34.720Z,49.67
2019-01-24T14:23:03.144Z,45.20
2019-01-24T14:25:31.536Z,45.33
2019-01-24T14:27:59.957Z,46.93
2019-01-24T14:30:29.088Z,45.67
2019-01-24T14:32:57.510Z,43.80
2019-01-24T14:35:25.926Z,44.43
2019-01-24T14:37:54.313Z,46.33
2019-01-24T14:40:22.744Z,42.17
2019-01-24T14:42:51.138Z,43.80
2019-01-24T14:45:27.428Z,46.53
2019-01-24T14:47:55.829Z,45.70
2019-01-24T14:50:27.146Z,39.80
2019-01-24T14:52:55.534Z,48.80
2019-01-24T14:55:23.917Z,48.97
2019-01-24T14:57:52.347Z,55.60
2019-01-24T15:00:26.096Z,52.90
2019-01-24T15:02:54.510Z,59.07
2019-01-24T15:05:22.979Z,48.30
2019-01-24T15:07:51.406Z,47.53
2019-01-24T15:10:19.776Z,51.37
2019-01-24T15:12:52.753Z,46.70
2019-01-24T15:15:23.771Z,47.47
2019-01-24T15:17:52.409Z,46.03
2019-01-24T15:20:21.349Z,47.47
2019-01-24T15:22:49.727Z,51.00
2019-01-24T15:25:20.714Z,49.97
2019-01-24T15:27:49.178Z,50.77
2019-01-24T15:30:25.775Z,58.27
2019-01-24T15:32:54.355Z,65.67
2019-01-24T15:35:22.816Z,45.97
2019-01-24T15:37:54.705Z,45.17
2019-01-24T15:40:33.568Z,44.63
2019-01-24T15:43:02.459Z,46.50
2019-01-24T15:45:31.120Z,48.60
2019-01-24T15:48:00.085Z,45.17
2019-01-24T15:50:29.534Z,46.70
2019-01-24T15:52:58.484Z,43.67
2019-01-24T15:55:27.909Z,42.63
2019-01-24T15:57:56.568Z,47.20
2019-01-24T16:00:34.774Z,44.43
2019-01-24T16:03:04.634Z,45.93
2019-01-24T16:05:34.329Z,48.43
2019-01-24T16:08:05.383Z,47.70
2019-01-24T16:10:35.771Z,51.13
2019-01-24T16:13:04.671Z,49.17
2019-01-24T16:15:35.864Z,50.17
2019-01-24T16:18:08.240Z,50.00
2019-01-24T16:20:39.623Z,50.27
2019-01-24T16:23:14.761Z,45.37
2019-01-24T16:25:44.437Z,50.23
2019-01-24T16:28:14.386Z,50.63
2019-01-24T16:30:44.352Z,50.77
2019-01-24T16:33:14.952Z,50.47
2019-01-24T16:35:45.427Z,52.60
2019-01-24T16:38:14.489Z,49.00
2019-01-24T16:40:43.879Z,53.57
2019-01-24T16:43:12.896Z,53.83
2019-01-24T16:45:57.689Z,49.77
2019-01-24T16:48:26.167Z,50.00
2019-01-24T16:50:54.570Z,52.03
2019-01-24T16:53:25.830Z,49.90
2019-01-24T16:55:54.513Z,49.87
2019-01-24T16:58:24.173Z,49.20
2019-01-24T17:00:53.096Z,48.27
2019-01-24T17:03:23.680Z,47.80
2019-01-24T17:05:55.473Z,47.77
2019-01-24T17:08:24.882Z,47.63
2019-01-24T17:10:53.467Z,47.47
2019-01-24T17:13:24.918Z,48.33
2019-01-24T17:15:53.955Z,46.53
2019-01-24T17:18:25.348Z,47.03
2019-01-24T17:20:54.015Z,47.87
2019-01-24T17:23:22.781Z,50.73
2019-01-24T17:25:52.809Z,48.47
2019-01-24T17:28:39.663Z,49.00
2019-01-24T17:31:10.035Z,48.83
2019-01-24T17:33:39.428Z,46.70
2019-01-24T17:36:43.845Z,48.03
2019-01-24T17:39:12.504Z,46.97
2019-01-24T17:41:41.491Z,48.07
2019-01-24T17:44:10.748Z,45.17
2019-01-24T17:46:40.128Z,44.23
2019-01-24T17:49:08.759Z,44.93
2019-01-24T17:51:37.850Z,45.73
2019-01-24T17:54:06.512Z,47.53
2019-01-24T17:56:35.183Z,46.13
2019-01-24T17:59:06.315Z,46.23
2019-01-24T18:01:35.335Z,48.83
2019-01-24T18:04:05.195Z,48.03
2019-01-24T18:06:34.093Z,47.90
2019-01-24T18:09:03.952Z,47.93
2019-01-24T18:11:34.235Z,44.67
2019-01-24T18:14:03.548Z,46.93
2019-01-24T18:16:46.512Z,46.70
2019-01-24T18:19:16.210Z,47.43
2019-01-24T18:21:45.657Z,46.13
2019-01-24T18:24:17.721Z,46.40
2019-01-24T18:26:51.553Z,45.00
2019-01-24T18:29:21.986Z,46.80
2019-01-24T18:31:50.661Z,45.03
2019-01-24T18:34:21.658Z,47.13
2019-01-24T18:36:50.423Z,46.43
2019-01-24T18:39:20.266Z,47.23
2019-01-24T18:41:49.521Z,45.63
2019-01-24T18:44:20.200Z,45.27
2019-01-24T18:46:49.809Z,43.47
2019-01-24T18:49:18.528Z,45.07
2019-01-24T18:51:49.666Z,42.27
2019-01-24T18:54:18.899Z,45.47
2019-01-24T18:56:48.280Z,42.70
2019-01-24T18:59:16.971Z,43.37
2019-01-24T19:01:46.328Z,46.53
2019-01-24T19:04:14.941Z,41.73
2019-01-24T19:06:43.613Z,44.13
2019-01-24T19:09:13.456Z,43.77
2019-01-24T19:11:46.506Z,44.10
2019-01-24T19:14:15.228Z,43.77
2019-01-24T19:16:44.198Z,42.03
2019-01-24T19:19:14.195Z,44.93
2019-01-24T19:21:43.154Z,41.77
2019-01-24T19:24:15.348Z,43.10
2019-01-24T19:26:43.820Z,41.20
2019-01-24T19:29:13.103Z,44.97
2019-01-24T19:31:41.518Z,42.53
2019-01-24T19:34:10.217Z,42.17
2019-01-24T19:36:38.905Z,42.97
2019-01-24T19:39:08.855Z,43.27
2019-01-24T19:41:37.621Z,50.17
2019-01-24T19:44:06.167Z,47.67
2019-01-24T19:46:34.844Z,49.60
2019-01-24T19:49:04.069Z,44.27
2019-01-24T19:51:32.473Z,43.30
2019-01-24T19:54:01.214Z,48.77
2019-01-24T19:56:30.008Z,45.33
2019-01-24T19:58:58.577Z,43.40
2019-01-24T20:01:26.958Z,39.67
2019-01-24T20:03:55.835Z,42.37
2019-01-24T20:06:24.633Z,36.37
2019-01-24T20:08:59.953Z,37.90
2019-01-24T20:11:23.775Z,36.10
2019-01-24T20:13:53.192Z,37.47
2019-01-24T20:16:21.747Z,36.07
2019-01-24T20:18:52.144Z,35.23
2019-01-24T20:21:20.864Z,34.13
2019-01-24T20:23:50.547Z,35.33
2019-01-24T20:26:19.647Z,35.27
2019-01-24T20:28:49.662Z,37.70
2019-01-24T20:31:20.434Z,34.20
2019-01-24T20:33:48.990Z,35.83
2019-01-24T20:36:34.739Z,35.07
2019-01-24T20:38:53.679Z,35.83
2019-01-24T20:41:23.794Z,36.03
2019-01-24T20:43:52.545Z,35.43
2019-01-24T20:46:22.643Z,37.20
2019-01-24T20:48:51.057Z,37.03
2019-01-24T20:51:19.560Z,37.37
2019-01-24T20:53:48.025Z,36.73
2019-01-24T20:56:16.630Z,41.13
2019-01-24T20:58:46.804Z,43.67
2019-01-24T21:01:16.506Z,42.10
2019-01-24T21:03:46.578Z,43.20
2019-01-24T21:06:15.237Z,45.23
2019-01-24T21:08:45.435Z,43.80
2019-01-24T21:11:14.466Z,46.03
2019-01-24T21:13:43.018Z,46.37
2019-01-24T21:16:11.553Z,43.63
2019-01-24T21:18:40.120Z,45.70
2019-01-24T21:21:08.615Z,45.13
2019-01-24T21:23:37.028Z,45.23
2019-01-24T21:26:06.755Z,45.70
2019-01-24T21:28:36.754Z,45.40
2019-01-24T21:31:06.518Z,46.73
2019-01-24T21:33:35.668Z,46.80
2019-01-24T21:36:04.648Z,46.77
2019-01-24T21:38:35.026Z,45.97
2019-01-24T21:41:03.634Z,46.83
2019-01-24T21:43:33.198Z,46.70
2019-01-24T21:46:01.794Z,45.27
2019-01-24T21:48:30.735Z,47.47
2019-01-24T21:51:00.904Z,45.93
2019-01-24T21:53:29.471Z,47.47
2019-01-24T21:55:58.666Z,46.33
2019-01-24T21:58:27.392Z,46.40
2019-01-24T22:00:56.067Z,47.00
2019-01-24T22:03:24.784Z,44.33
2019-01-24T22:05:55.509Z,46.10
2019-01-24T22:08:25.281Z,45.43
2019-01-24T22:10:55.866Z,46.00
2019-01-24T22:13:25.701Z,45.00
2019-01-24T22:15:54.378Z,45.27
2019-01-24T22:18:22.883Z,46.50
2019-01-24T22:20:55.741Z,46.33
2019-01-24T22:23:25.585Z,46.33
2019-01-24T22:25:54.173Z,46.93
2019-01-24T22:28:23.999Z,45.30
2019-01-24T22:30:57.012Z,47.70
2019-01-24T22:33:25.389Z,48.87
2019-01-24T22:35:53.831Z,47.30
2019-01-24T22:38:22.703Z,46.53
2019-01-24T22:40:51.093Z,48.07
2019-01-24T22:43:19.511Z,47.27
2019-01-24T22:45:47.901Z,46.87
2019-01-24T22:48:17.908Z,46.60
2019-01-24T22:50:46.334Z,48.43
2019-01-24T22:53:14.964Z,45.67
2019-01-24T22:55:43.321Z,47.87
2019-01-24T22:58:11.707Z,47.47
2019-01-24T23:00:47.757Z,46.03
2019-01-24T23:03:22.597Z,46.77
2019-01-24T23:05:52.451Z,44.67
2019-01-24T23:08:21.141Z,46.00
2019-01-24T23:10:49.630Z,45.93
2019-01-24T23:13:18.080Z,44.83
2019-01-24T23:15:46.478Z,45.70
2019-01-24T23:18:14.901Z,46.20
2019-01-24T23:20:43.515Z,45.43
2019-01-24T23:23:11.913Z,43.40
2019-01-24T23:25:40.909Z,44.50
2019-01-24T23:28:10.120Z,44.20
2019-01-24T23:30:38.953Z,44.67
2019-01-24T23:33:07.562Z,42.17
2019-01-24T23:35:36.130Z,44.63
2019-01-24T23:38:05.116Z,44.03
2019-01-24T23:40:34.054Z,45.07
2019-01-24T23:43:03.467Z,43.90
2019-01-24T23:45:32.681Z,45.43
2019-01-24T23:48:01.513Z,44.83
2019-01-24T23:50:31.235Z,45.20
2019-01-24T23:52:59.765Z,44.00
2019-01-24T23:55:28.233Z,43.83
2019-01-24T23:57:56.662Z,45.37
